createdAt,value
2022-08-05T00:00:08.185Z,1010.32
2022-08-05T00:01:20.717Z,1010.33
2022-08-05T00:02:11.387Z,1010.36
2022-08-05T00:03:07.117Z,1010.32
2022-08-05T00:04:08.562Z,1010.27
2022-08-05T00:05:07.096Z,1010.28
2022-08-05T00:06:29.053Z,1010.27
2022-08-05T00:07:26.949Z,1010.30
2022-08-05T00:08:30.821Z,1010.30
2022-08-05T00:09:13.131Z,1010.33
2022-08-05T00:10:08.083Z,1010.35
2022-08-05T00:11:07.626Z,1010.39
2022-08-05T00:12:08.003Z,1010.37
2022-08-05T00:13:07.982Z,1010.38
2022-08-05T00:14:12.789Z,1010.31
2022-08-05T00:15:56.162Z,1010.28
2022-08-05T00:16:08.621Z,1010.26
2022-08-05T00:17:18.642Z,1010.26
2022-08-05T00:18:07.932Z,1010.32
2022-08-05T00:19:06.903Z,1010.36
2022-08-05T00:20:06.904Z,1010.37
2022-08-05T00:21:08.361Z,1010.40
2022-08-05T00:22:06.894Z,1010.41
2022-08-05T00:23:12.783Z,1010.34
2022-08-05T00:24:10.991Z,1010.39
2022-08-05T00:25:08.388Z,1010.32
2022-08-05T00:26:07.825Z,1010.26
2022-08-05T00:27:10.492Z,1010.29
2022-08-05T00:28:07.904Z,1010.25
2022-08-05T00:29:06.776Z,1010.29
2022-08-05T00:30:11.596Z,1010.29
2022-08-05T00:31:07.829Z,1010.36
2022-08-05T00:32:12.906Z,1010.37
2022-08-05T00:33:07.735Z,1010.38
2022-08-05T00:34:55.195Z,1010.29
2022-08-05T00:35:07.859Z,1010.30
2022-08-05T00:36:15.967Z,1010.24
2022-08-05T00:37:10.632Z,1010.18
2022-08-05T00:38:09.553Z,1010.15
2022-08-05T00:39:06.701Z,1010.14
2022-08-05T00:40:09.510Z,1010.19
2022-08-05T00:41:06.634Z,1010.14
2022-08-05T00:42:07.611Z,1010.11
2022-08-05T00:43:07.494Z,1010.12
2022-08-05T00:44:06.645Z,1010.09
2022-08-05T00:45:08.567Z,1010.03
2022-08-05T00:46:06.674Z,1010.12
2022-08-05T00:47:06.544Z,1010.16
2022-08-05T00:48:07.589Z,1010.16
2022-08-05T00:49:06.529Z,1010.23
2022-08-05T00:50:06.507Z,1010.30
2022-08-05T00:51:49.844Z,1010.39
2022-08-05T00:52:07.606Z,1010.39
2022-08-05T00:53:09.869Z,1010.38
2022-08-05T00:54:07.458Z,1010.41
2022-08-05T00:55:06.443Z,1010.47
2022-08-05T00:56:08.065Z,1010.45
2022-08-05T00:57:06.421Z,1010.48
2022-08-05T00:58:06.417Z,1010.44
2022-08-05T00:59:06.955Z,1010.52
2022-08-05T01:00:06.380Z,1010.55
2022-08-05T01:01:09.004Z,1010.60
2022-08-05T01:02:06.367Z,1010.65
2022-08-05T01:03:07.953Z,1010.69
2022-08-05T01:04:11.843Z,1010.71
2022-08-05T01:05:09.986Z,1010.74
2022-08-05T01:06:06.291Z,1010.78
2022-08-05T01:07:07.320Z,1010.73
2022-08-05T01:08:30.811Z,1010.83
2022-08-05T01:09:07.263Z,1010.84
2022-08-05T01:10:08.999Z,1010.87
2022-08-05T01:11:06.233Z,1010.87
2022-08-05T01:12:18.080Z,1010.83
2022-08-05T01:13:13.380Z,1010.81
2022-08-05T01:14:08.933Z,1010.78
2022-08-05T01:15:06.202Z,1010.84
2022-08-05T01:16:07.164Z,1010.80
2022-08-05T01:17:06.154Z,1010.77
2022-08-05T01:18:06.144Z,1010.79
2022-08-05T01:19:06.134Z,1010.73
2022-08-05T01:20:06.137Z,1010.79
2022-08-05T01:21:06.133Z,1010.79
2022-08-05T01:22:06.108Z,1010.75
2022-08-05T01:23:14.283Z,1010.75
2022-08-05T01:24:14.183Z,1010.75
2022-08-05T01:25:07.119Z,1010.72
2022-08-05T01:26:06.040Z,1010.70
2022-08-05T01:27:19.200Z,1010.73
2022-08-05T01:28:07.009Z,1010.78
2022-08-05T01:29:06.000Z,1010.79
2022-08-05T01:30:05.979Z,1010.85
2022-08-05T01:31:07.079Z,1010.82
2022-08-05T01:32:05.960Z,1010.84
2022-08-05T01:33:08.219Z,1010.83
2022-08-05T01:34:05.929Z,1010.77
2022-08-05T01:35:10.732Z,1010.84
2022-08-05T01:36:06.908Z,1010.83
2022-08-05T01:37:07.001Z,1010.86
2022-08-05T01:38:05.883Z,1010.85
2022-08-05T01:39:05.927Z,1010.86
2022-08-05T01:40:05.897Z,1010.92
2022-08-05T01:41:05.843Z,1010.86
2022-08-05T01:42:05.831Z,1010.94
2022-08-05T01:43:05.836Z,1010.92
2022-08-05T01:44:05.809Z,1010.89
2022-08-05T01:45:08.079Z,1010.97
2022-08-05T01:46:07.533Z,1010.92
2022-08-05T01:47:06.872Z,1010.94
2022-08-05T01:48:10.218Z,1010.95
2022-08-05T01:49:23.073Z,1010.91
2022-08-05T01:50:06.726Z,1010.97
2022-08-05T01:51:12.352Z,1011.01
2022-08-05T01:52:17.619Z,1011.08
2022-08-05T01:53:06.686Z,1011.06
2022-08-05T01:54:05.667Z,1011.11
2022-08-05T01:55:05.695Z,1011.03
2022-08-05T01:56:05.648Z,1011.12
2022-08-05T01:58:10.982Z,1011.09
2022-08-05T01:58:11.344Z,1010.98
2022-08-05T01:59:06.610Z,1010.95
2022-08-05T02:00:05.597Z,1011.03
2022-08-05T02:01:06.610Z,1011.00
2022-08-05T02:02:05.605Z,1010.99
2022-08-05T02:03:06.576Z,1010.99
2022-08-05T02:04:06.548Z,1011.00
2022-08-05T02:05:05.530Z,1011.06
2022-08-05T02:06:33.915Z,1011.09
2022-08-05T02:07:06.622Z,1011.03
2022-08-05T02:08:05.504Z,1011.04
2022-08-05T02:09:05.814Z,1011.07
2022-08-05T02:10:05.463Z,1011.08
2022-08-05T02:11:05.452Z,1011.10
2022-08-05T02:12:05.434Z,1011.05
2022-08-05T02:13:05.461Z,1011.02
2022-08-05T02:14:06.405Z,1011.04
2022-08-05T02:15:05.394Z,1011.03
2022-08-05T02:16:05.383Z,1011.05
2022-08-05T02:17:05.366Z,1011.06
2022-08-05T02:18:31.137Z,1011.11
2022-08-05T02:19:06.966Z,1011.08
2022-08-05T02:20:05.336Z,1011.05
2022-08-05T02:21:05.722Z,1011.07
2022-08-05T02:22:05.399Z,1011.07
2022-08-05T02:23:05.296Z,1011.11
2022-08-05T02:24:05.277Z,1011.13
2022-08-05T02:25:05.288Z,1011.11
2022-08-05T02:26:05.259Z,1011.09
2022-08-05T02:27:10.021Z,1011.02
2022-08-05T02:28:08.962Z,1011.02
2022-08-05T02:29:05.219Z,1011.06
2022-08-05T02:30:06.219Z,1011.03
2022-08-05T02:31:05.191Z,1011.07
2022-08-05T02:32:05.180Z,1011.06
2022-08-05T02:33:05.170Z,1011.03
2022-08-05T02:34:05.151Z,1011.09
2022-08-05T02:35:13.628Z,1011.12
2022-08-05T02:36:06.142Z,1011.08
2022-08-05T02:37:05.115Z,1011.11
2022-08-05T02:38:05.092Z,1011.12
2022-08-05T02:39:05.140Z,1011.09
2022-08-05T02:40:05.068Z,1011.10
2022-08-05T02:41:14.531Z,1011.10
2022-08-05T02:42:06.073Z,1011.14
2022-08-05T02:43:05.035Z,1011.12
2022-08-05T02:44:11.979Z,1011.08
2022-08-05T02:45:06.004Z,1011.13
2022-08-05T02:46:04.995Z,1011.15
2022-08-05T02:47:04.975Z,1011.14
2022-08-05T02:48:12.087Z,1011.18
2022-08-05T02:49:05.957Z,1011.15
2022-08-05T02:50:05.936Z,1011.11
2022-08-05T02:51:04.928Z,1011.20
2022-08-05T02:52:05.003Z,1011.30
2022-08-05T02:53:04.907Z,1011.28
2022-08-05T02:54:05.908Z,1011.26
2022-08-05T02:55:05.506Z,1011.37
2022-08-05T02:56:05.858Z,1011.41
2022-08-05T02:57:05.141Z,1011.38
2022-08-05T02:58:10.102Z,1011.37
2022-08-05T02:59:05.830Z,1011.25
2022-08-05T03:00:04.811Z,1011.24
2022-08-05T03:01:04.878Z,1011.25
2022-08-05T03:02:04.786Z,1011.26
2022-08-05T03:03:10.320Z,1011.20
2022-08-05T03:04:14.057Z,1011.26
2022-08-05T03:05:05.782Z,1011.24
2022-08-05T03:06:54.660Z,1011.32
2022-08-05T03:07:05.724Z,1011.32
2022-08-05T03:08:08.583Z,1011.35
2022-08-05T03:09:04.697Z,1011.40
2022-08-05T03:10:04.683Z,1011.39
2022-08-05T03:11:53.780Z,1011.34
2022-08-05T03:12:05.681Z,1011.38
2022-08-05T03:13:51.547Z,1011.36
2022-08-05T03:14:45.863Z,1011.41
2022-08-05T03:15:36.305Z,1011.39
2022-08-05T03:16:35.850Z,1011.38
2022-08-05T03:17:41.809Z,1011.32
2022-08-05T03:18:36.263Z,1011.32
2022-08-05T03:19:36.368Z,1011.31
2022-08-05T03:20:35.235Z,1011.29
2022-08-05T03:21:44.212Z,1011.33
2022-08-05T03:22:36.227Z,1011.33
2022-08-05T03:23:35.227Z,1011.28
2022-08-05T03:24:35.178Z,1011.27
2022-08-05T03:26:05.063Z,1011.25
2022-08-05T03:26:36.148Z,1011.23
2022-08-05T03:27:59.074Z,1011.25
2022-08-05T03:28:36.159Z,1011.29
2022-08-05T03:29:45.443Z,1011.37
2022-08-05T03:30:36.100Z,1011.34
2022-08-05T03:31:56.932Z,1011.39
2022-08-05T03:32:36.078Z,1011.38
2022-08-05T03:33:52.828Z,1011.38
2022-08-05T03:34:36.089Z,1011.37
2022-08-05T03:35:41.225Z,1011.38
2022-08-05T03:36:36.024Z,1011.39
2022-08-05T03:37:41.015Z,1011.37
2022-08-05T03:38:37.469Z,1011.37
2022-08-05T03:39:47.390Z,1011.33
2022-08-05T03:40:36.105Z,1011.38
2022-08-05T03:41:45.426Z,1011.35
2022-08-05T03:42:41.481Z,1011.38
2022-08-05T03:44:08.402Z,1011.37
2022-08-05T03:44:35.915Z,1011.40
2022-08-05T03:45:58.056Z,1011.43
2022-08-05T03:46:35.925Z,1011.34
2022-08-05T03:47:35.565Z,1011.28
2022-08-05T03:48:36.756Z,1011.20
2022-08-05T03:49:51.585Z,1011.02
2022-08-05T03:50:35.853Z,1010.95
2022-08-05T03:52:37.212Z,1010.96
2022-08-05T03:54:59.245Z,1011.05
2022-08-05T03:55:52.640Z,1011.05
2022-08-05T03:56:01.835Z,1010.93
2022-08-05T03:56:09.403Z,1010.74
2022-08-05T03:56:35.907Z,1010.70
2022-08-05T03:57:41.940Z,1010.57
2022-08-05T03:58:35.766Z,1010.76
2022-08-05T03:59:47.262Z,1010.74
2022-08-05T04:00:35.710Z,1010.72
2022-08-05T04:01:34.796Z,1010.75
2022-08-05T04:02:39.008Z,1010.79
2022-08-05T04:03:35.682Z,1010.74
2022-08-05T04:04:34.693Z,1010.65
2022-08-05T04:05:34.893Z,1010.61
2022-08-05T04:06:34.631Z,1010.47
2022-08-05T04:07:34.624Z,1010.44
2022-08-05T04:08:36.693Z,1010.34
2022-08-05T04:09:36.666Z,1010.25
2022-08-05T04:10:37.903Z,1010.26
2022-08-05T04:11:42.565Z,1010.29
2022-08-05T04:13:10.395Z,1010.47
2022-08-05T04:14:10.365Z,1010.65
2022-08-05T04:15:15.609Z,1010.76
2022-08-05T04:16:11.465Z,1010.78
2022-08-05T04:17:11.403Z,1010.77
2022-08-05T04:18:12.735Z,1010.78
2022-08-05T04:19:11.316Z,1010.76
2022-08-05T04:20:10.296Z,1010.86
2022-08-05T04:21:11.118Z,1010.77
2022-08-05T04:22:12.274Z,1010.74
2022-08-05T04:23:12.463Z,1010.74
2022-08-05T04:24:18.774Z,1010.85
2022-08-05T04:25:11.229Z,1010.77
2022-08-05T04:26:10.215Z,1010.81
2022-08-05T04:27:10.223Z,1010.86
2022-08-05T04:28:11.260Z,1010.85
2022-08-05T04:29:10.180Z,1010.92
2022-08-05T04:30:10.165Z,1010.96
2022-08-05T04:31:10.643Z,1011.06
2022-08-05T04:32:10.143Z,1011.15
2022-08-05T04:33:10.132Z,1011.05
2022-08-05T04:34:31.756Z,1011.15
2022-08-05T04:35:17.600Z,1011.17
2022-08-05T04:36:38.521Z,1011.20
2022-08-05T04:37:11.073Z,1011.15
2022-08-05T04:38:10.062Z,1011.06
2022-08-05T04:39:11.119Z,1011.01
2022-08-05T04:40:10.033Z,1011.03
2022-08-05T04:41:10.210Z,1010.98
2022-08-05T04:42:10.006Z,1010.99
2022-08-05T04:43:10.965Z,1010.99
2022-08-05T04:44:10.987Z,1010.93
2022-08-05T04:45:10.021Z,1010.96
2022-08-05T04:46:09.955Z,1011.00
2022-08-05T04:47:10.500Z,1010.98
2022-08-05T04:48:10.339Z,1010.98
2022-08-05T04:49:14.852Z,1010.93
2022-08-05T04:50:11.308Z,1010.96
2022-08-05T04:51:11.460Z,1010.93
2022-08-05T04:52:09.891Z,1011.01
2022-08-05T04:53:09.876Z,1010.94
2022-08-05T04:54:09.859Z,1010.93
2022-08-05T04:55:14.612Z,1010.89
2022-08-05T04:56:15.367Z,1010.87
2022-08-05T04:57:10.842Z,1010.85
2022-08-05T04:58:12.333Z,1010.88
2022-08-05T04:59:22.343Z,1010.85
2022-08-05T05:00:10.779Z,1010.86
2022-08-05T05:01:09.849Z,1010.92
2022-08-05T05:02:37.370Z,1010.90
2022-08-05T05:03:10.810Z,1010.96
2022-08-05T05:04:09.732Z,1010.97
2022-08-05T05:05:26.451Z,1011.03
2022-08-05T05:06:38.724Z,1011.08
2022-08-05T05:07:10.723Z,1011.10
2022-08-05T05:08:14.373Z,1011.14
2022-08-05T05:09:10.664Z,1011.17
2022-08-05T05:10:09.654Z,1011.16
2022-08-05T05:11:09.643Z,1011.18
2022-08-05T05:12:09.625Z,1011.18
2022-08-05T05:13:09.644Z,1011.22
2022-08-05T05:14:09.605Z,1011.21
2022-08-05T05:15:11.051Z,1011.16
2022-08-05T05:16:09.585Z,1011.19
2022-08-05T05:17:09.589Z,1011.18
2022-08-05T05:18:09.557Z,1011.27
2022-08-05T05:19:19.243Z,1011.24
2022-08-05T05:20:10.539Z,1011.17
2022-08-05T05:21:09.521Z,1011.15
2022-08-05T05:22:24.101Z,1011.18
2022-08-05T05:23:19.691Z,1011.14
2022-08-05T05:24:10.518Z,1011.03
2022-08-05T05:25:16.123Z,1011.10
2022-08-05T05:26:10.452Z,1011.15
2022-08-05T05:27:09.447Z,1011.15
2022-08-05T05:28:09.442Z,1011.17
2022-08-05T05:29:14.233Z,1011.24
2022-08-05T05:30:15.275Z,1011.29
2022-08-05T05:31:10.392Z,1011.37
2022-08-05T05:32:12.682Z,1011.33
2022-08-05T05:33:17.199Z,1011.41
2022-08-05T05:34:10.355Z,1011.46
2022-08-05T05:35:09.332Z,1011.49
2022-08-05T05:36:09.344Z,1011.42
2022-08-05T05:37:09.312Z,1011.40
2022-08-05T05:38:13.136Z,1011.37
2022-08-05T05:39:10.832Z,1011.38
2022-08-05T05:40:09.282Z,1011.39
2022-08-05T05:41:09.289Z,1011.37
2022-08-05T05:42:09.355Z,1011.34
2022-08-05T05:43:09.246Z,1011.39
2022-08-05T05:44:35.608Z,1011.39
2022-08-05T05:45:10.215Z,1011.38
2022-08-05T05:46:15.982Z,1011.40
2022-08-05T05:47:13.456Z,1011.35
2022-08-05T05:48:10.169Z,1011.37
2022-08-05T05:49:22.548Z,1011.39
2022-08-05T05:50:10.157Z,1011.42
2022-08-05T05:51:15.263Z,1011.45
2022-08-05T05:52:13.273Z,1011.51
2022-08-05T05:53:22.232Z,1011.56
2022-08-05T05:54:11.657Z,1011.55
2022-08-05T05:55:13.272Z,1011.59
2022-08-05T05:56:09.071Z,1011.58
2022-08-05T05:57:13.453Z,1011.61
2022-08-05T05:58:10.050Z,1011.61
2022-08-05T05:59:09.061Z,1011.59
2022-08-05T06:00:09.012Z,1011.54
2022-08-05T06:01:13.411Z,1011.50
2022-08-05T06:02:10.000Z,1011.54
2022-08-05T06:03:39.623Z,1011.52
2022-08-05T06:04:11.922Z,1011.52
2022-08-05T06:05:10.494Z,1011.54
2022-08-05T06:06:09.943Z,1011.57
2022-08-05T06:07:08.935Z,1011.60
2022-08-05T06:08:08.914Z,1011.65
2022-08-05T06:09:08.905Z,1011.65
2022-08-05T06:10:10.455Z,1011.69
2022-08-05T06:11:08.886Z,1011.73
2022-08-05T06:12:09.694Z,1011.80
2022-08-05T06:13:08.856Z,1011.82
2022-08-05T06:14:08.837Z,1011.82
2022-08-05T06:15:11.408Z,1011.88
2022-08-05T06:16:28.978Z,1011.91
2022-08-05T06:17:24.368Z,1011.89
2022-08-05T06:18:09.797Z,1011.87
2022-08-05T06:19:08.788Z,1011.84
2022-08-05T06:20:08.769Z,1011.83
2022-08-05T06:21:18.657Z,1011.88
2022-08-05T06:22:09.773Z,1011.76
2022-08-05T06:23:08.733Z,1011.76
2022-08-05T06:24:11.800Z,1011.70
2022-08-05T06:25:24.894Z,1011.76
2022-08-05T06:26:13.832Z,1011.77
2022-08-05T06:28:09.531Z,1011.80
2022-08-05T06:28:12.053Z,1011.89
2022-08-05T06:29:46.828Z,1011.93
2022-08-05T06:30:17.793Z,1012.03
2022-08-05T06:31:10.868Z,1012.05
2022-08-05T06:32:25.585Z,1012.03
2022-08-05T06:33:09.722Z,1012.04
2022-08-05T06:34:09.126Z,1011.98
2022-08-05T06:35:15.499Z,1012.03
2022-08-05T06:36:10.253Z,1012.02
2022-08-05T06:37:09.505Z,1011.96
2022-08-05T06:38:11.890Z,1011.94
2022-08-05T06:39:08.562Z,1011.88
2022-08-05T06:40:08.546Z,1012.00
2022-08-05T06:41:08.499Z,1011.93
2022-08-05T06:42:08.489Z,1011.90
2022-08-05T06:43:57.478Z,1011.97
2022-08-05T06:44:09.468Z,1011.99
2022-08-05T06:45:09.013Z,1012.05
2022-08-05T06:46:08.487Z,1011.97
2022-08-05T06:47:10.384Z,1012.02
2022-08-05T06:48:47.116Z,1012.01
2022-08-05T06:49:09.402Z,1011.99
2022-08-05T06:50:08.390Z,1012.02
2022-08-05T06:51:11.999Z,1012.00
2022-08-05T06:52:36.424Z,1011.89
2022-08-05T06:53:11.752Z,1011.95
2022-08-05T06:54:09.341Z,1011.91
2022-08-05T06:55:08.321Z,1011.89
2022-08-05T06:56:25.940Z,1011.89
2022-08-05T06:57:57.900Z,1011.87
2022-08-05T06:58:20.015Z,1011.99
2022-08-05T06:59:11.955Z,1011.92
2022-08-05T07:00:09.686Z,1011.96
2022-08-05T07:01:08.300Z,1011.95
2022-08-05T07:02:09.239Z,1011.94
2022-08-05T07:03:09.780Z,1011.93
2022-08-05T07:04:08.205Z,1011.94
2022-08-05T07:05:14.487Z,1011.97
2022-08-05T07:06:14.189Z,1011.91
2022-08-05T07:07:09.175Z,1011.89
2022-08-05T07:08:10.013Z,1011.91
2022-08-05T07:09:08.176Z,1011.88
2022-08-05T07:10:08.155Z,1011.92
2022-08-05T07:11:08.127Z,1011.92
2022-08-05T07:12:09.108Z,1011.93
2022-08-05T07:13:08.098Z,1011.97
2022-08-05T07:14:08.078Z,1011.98
2022-08-05T07:15:09.109Z,1011.94
2022-08-05T07:16:08.058Z,1011.95
2022-08-05T07:17:58.200Z,1011.94
2022-08-05T07:18:11.556Z,1011.96
2022-08-05T07:19:09.022Z,1011.99
2022-08-05T07:20:32.050Z,1012.06
2022-08-05T07:21:09.022Z,1012.07
2022-08-05T07:22:08.097Z,1012.11
2022-08-05T07:23:07.961Z,1012.16
2022-08-05T07:24:09.198Z,1012.19
2022-08-05T07:25:21.759Z,1012.14
2022-08-05T07:26:08.974Z,1012.12
2022-08-05T07:27:09.051Z,1012.15
2022-08-05T07:28:11.262Z,1012.16
2022-08-05T07:29:07.892Z,1012.09
2022-08-05T07:30:27.256Z,1012.08
2022-08-05T07:31:08.874Z,1012.17
2022-08-05T07:32:07.907Z,1012.15
2022-08-05T07:33:09.567Z,1012.20
2022-08-05T07:34:08.367Z,1012.27
2022-08-05T07:36:04.910Z,1012.20
2022-08-05T07:36:20.111Z,1012.18
2022-08-05T07:37:09.111Z,1012.18
2022-08-05T07:38:07.807Z,1012.14
2022-08-05T07:39:07.842Z,1012.21
2022-08-05T07:40:31.743Z,1012.27
2022-08-05T07:42:08.442Z,1012.27
2022-08-05T07:42:14.077Z,1012.32
2022-08-05T07:43:20.449Z,1012.34
2022-08-05T07:44:18.783Z,1012.34
2022-08-05T07:45:09.340Z,1012.35
2022-08-05T07:46:24.438Z,1012.35
2022-08-05T07:47:10.062Z,1012.42
2022-08-05T07:48:07.651Z,1012.47
2022-08-05T07:49:07.992Z,1012.47
2022-08-05T07:50:07.658Z,1012.61
2022-08-05T07:51:22.924Z,1012.58
2022-08-05T07:52:08.601Z,1012.68
2022-08-05T07:53:07.581Z,1012.60
2022-08-05T07:54:08.480Z,1012.51
2022-08-05T07:55:15.926Z,1012.47
2022-08-05T07:57:02.785Z,1012.36
2022-08-05T07:57:17.834Z,1012.39
2022-08-05T07:58:09.077Z,1012.31
2022-08-05T07:59:08.752Z,1012.18
2022-08-05T08:00:11.584Z,1012.22
2022-08-05T08:01:12.403Z,1012.17
2022-08-05T08:02:15.484Z,1012.26
2022-08-05T08:03:14.103Z,1012.20
2022-08-05T08:04:08.445Z,1012.28
2022-08-05T08:05:07.426Z,1012.46
2022-08-05T08:06:07.424Z,1012.50
2022-08-05T08:07:07.629Z,1012.59
2022-08-05T08:08:07.416Z,1012.58
2022-08-05T08:09:08.389Z,1012.60
2022-08-05T08:10:07.369Z,1012.58
2022-08-05T08:11:08.991Z,1012.61
2022-08-05T08:12:27.233Z,1012.65
2022-08-05T08:13:08.440Z,1012.69
2022-08-05T08:14:07.319Z,1012.63
2022-08-05T08:15:14.018Z,1012.67
2022-08-05T08:16:50.503Z,1012.64
2022-08-05T08:17:08.282Z,1012.52
2022-08-05T08:18:13.938Z,1012.48
2022-08-05T08:19:08.371Z,1012.50
2022-08-05T08:20:44.542Z,1012.51
2022-08-05T08:21:09.441Z,1012.45
2022-08-05T08:22:09.086Z,1012.39
2022-08-05T08:23:07.201Z,1012.40
2022-08-05T08:24:13.554Z,1012.42
2022-08-05T08:25:16.238Z,1012.51
2022-08-05T08:26:08.194Z,1012.48
2022-08-05T08:27:07.340Z,1012.49
2022-08-05T08:28:07.157Z,1012.56
2022-08-05T08:29:21.597Z,1012.54
2022-08-05T08:30:29.953Z,1012.67
2022-08-05T08:31:08.144Z,1012.67
2022-08-05T08:32:07.105Z,1012.71
2022-08-05T08:33:08.358Z,1012.76
2022-08-05T08:34:07.057Z,1012.78
2022-08-05T08:35:07.070Z,1012.79
2022-08-05T08:36:38.495Z,1012.79
2022-08-05T08:37:08.040Z,1012.77
2022-08-05T08:38:07.048Z,1012.77
2022-08-05T08:39:07.026Z,1012.75
2022-08-05T08:40:08.094Z,1012.69
2022-08-05T08:41:06.972Z,1012.74
2022-08-05T08:42:15.173Z,1012.69
2022-08-05T08:44:56.398Z,1012.69
2022-08-05T08:45:18.731Z,1012.66
2022-08-05T08:45:22.491Z,1012.75
2022-08-05T08:46:10.027Z,1012.85
2022-08-05T08:47:21.751Z,1012.90
2022-08-05T08:48:22.685Z,1012.95
2022-08-05T08:50:13.042Z,1012.93
2022-08-05T08:50:31.825Z,1012.92
2022-08-05T08:51:54.475Z,1012.94
2022-08-05T08:52:13.758Z,1012.98
2022-08-05T08:53:12.270Z,1012.96
2022-08-05T08:54:06.824Z,1012.99
2022-08-05T08:55:13.145Z,1012.97
2022-08-05T08:56:07.802Z,1013.01
2022-08-05T08:57:11.607Z,1013.01
2022-08-05T08:58:08.659Z,1013.11
2022-08-05T08:59:14.662Z,1013.08
2022-08-05T09:00:07.747Z,1013.10
2022-08-05T09:01:06.763Z,1013.16
2022-08-05T09:02:08.553Z,1013.12
2022-08-05T09:03:06.756Z,1013.07
2022-08-05T09:04:06.677Z,1012.99
2022-08-05T09:05:17.606Z,1013.01
2022-08-05T09:06:11.570Z,1012.99
2022-08-05T09:07:10.794Z,1012.97
2022-08-05T09:08:07.634Z,1013.02
2022-08-05T09:09:06.609Z,1012.97
2022-08-05T09:10:06.660Z,1012.91
2022-08-05T09:11:07.547Z,1012.84
2022-08-05T09:12:20.116Z,1012.86
2022-08-05T09:13:08.509Z,1012.82
2022-08-05T09:14:54.487Z,1012.92
2022-08-05T09:15:07.608Z,1012.89
2022-08-05T09:16:06.520Z,1012.82
2022-08-05T09:17:09.590Z,1012.85
2022-08-05T09:18:07.501Z,1012.85
2022-08-05T09:19:06.747Z,1012.80
2022-08-05T09:20:06.493Z,1012.84
2022-08-05T09:21:11.636Z,1012.85
2022-08-05T09:22:30.915Z,1012.86
2022-08-05T09:23:07.808Z,1012.82
2022-08-05T09:24:06.826Z,1012.85
2022-08-05T09:25:13.673Z,1012.84
2022-08-05T09:26:09.164Z,1012.89
2022-08-05T09:27:06.376Z,1012.87
2022-08-05T09:28:06.542Z,1012.94
2022-08-05T09:29:06.379Z,1012.94
2022-08-05T09:30:06.764Z,1012.99
2022-08-05T09:31:43.748Z,1012.98
2022-08-05T09:32:41.296Z,1012.97
2022-08-05T09:33:07.317Z,1012.93
2022-08-05T09:34:06.301Z,1013.04
2022-08-05T09:35:06.309Z,1013.03
2022-08-05T09:36:16.302Z,1013.04
2022-08-05T09:37:07.253Z,1013.07
2022-08-05T09:38:16.935Z,1013.03
2022-08-05T09:39:16.376Z,1013.04
2022-08-05T09:40:07.281Z,1012.99
2022-08-05T09:41:06.212Z,1013.08
2022-08-05T09:42:07.818Z,1013.06
2022-08-05T09:43:06.171Z,1013.04
2022-08-05T09:44:06.168Z,1013.06
2022-08-05T09:45:17.507Z,1013.06
2022-08-05T09:46:08.726Z,1013.15
2022-08-05T09:47:10.445Z,1013.14
2022-08-05T09:48:07.117Z,1013.16
2022-08-05T09:49:07.930Z,1013.22
2022-08-05T09:50:07.111Z,1013.26
2022-08-05T09:51:15.112Z,1013.24
2022-08-05T09:52:07.196Z,1013.25
2022-08-05T09:53:06.056Z,1013.28
2022-08-05T09:54:06.045Z,1013.26
2022-08-05T09:55:06.487Z,1013.30
2022-08-05T09:56:13.185Z,1013.28
2022-08-05T09:57:23.211Z,1013.31
2022-08-05T09:58:07.018Z,1013.28
2022-08-05T09:59:05.975Z,1013.27
2022-08-05T10:00:08.361Z,1013.28
2022-08-05T10:01:14.995Z,1013.29
2022-08-05T10:02:06.939Z,1013.27
2022-08-05T10:03:05.953Z,1013.29
2022-08-05T10:04:10.581Z,1013.31
2022-08-05T10:05:07.944Z,1013.32
2022-08-05T10:06:07.681Z,1013.28
2022-08-05T10:07:19.865Z,1013.32
2022-08-05T10:08:34.677Z,1013.33
2022-08-05T10:09:06.863Z,1013.31
2022-08-05T10:10:15.244Z,1013.40
2022-08-05T10:11:06.823Z,1013.42
2022-08-05T10:12:07.596Z,1013.47
2022-08-05T10:13:09.722Z,1013.47
2022-08-05T10:14:05.795Z,1013.45
2022-08-05T10:15:06.784Z,1013.50
2022-08-05T10:16:05.772Z,1013.48
2022-08-05T10:17:05.758Z,1013.52
2022-08-05T10:18:06.755Z,1013.58
2022-08-05T10:19:09.119Z,1013.58
2022-08-05T10:20:09.985Z,1013.61
2022-08-05T10:21:11.748Z,1013.66
2022-08-05T10:22:06.699Z,1013.65
2022-08-05T10:23:05.677Z,1013.71
2022-08-05T10:24:10.823Z,1013.70
2022-08-05T10:25:05.651Z,1013.67
2022-08-05T10:26:05.639Z,1013.70
2022-08-05T10:27:05.705Z,1013.73
2022-08-05T10:28:12.960Z,1013.70
2022-08-05T10:29:06.664Z,1013.72
2022-08-05T10:30:06.839Z,1013.72
2022-08-05T10:32:47.741Z,1013.73
2022-08-05T10:32:55.162Z,1013.75
2022-08-05T10:33:09.389Z,1013.68
2022-08-05T10:34:07.105Z,1013.65
2022-08-05T10:35:05.524Z,1013.67
2022-08-05T10:36:05.544Z,1013.67
2022-08-05T10:37:05.539Z,1013.68
2022-08-05T10:38:05.543Z,1013.65
2022-08-05T10:39:10.299Z,1013.60
2022-08-05T10:40:17.690Z,1013.63
2022-08-05T10:41:06.544Z,1013.68
2022-08-05T10:42:05.427Z,1013.75
2022-08-05T10:43:05.426Z,1013.72
2022-08-05T10:44:05.704Z,1013.76
2022-08-05T10:45:20.913Z,1013.71
2022-08-05T10:46:06.986Z,1013.74
2022-08-05T10:47:05.374Z,1013.78
2022-08-05T10:48:31.061Z,1013.75
2022-08-05T10:49:10.107Z,1013.74
2022-08-05T10:50:32.820Z,1013.78
2022-08-05T10:51:06.324Z,1013.79
2022-08-05T10:52:10.284Z,1013.79
2022-08-05T10:53:05.302Z,1013.80
2022-08-05T10:54:23.013Z,1013.79
2022-08-05T10:55:06.349Z,1013.83
2022-08-05T10:56:14.887Z,1013.81
2022-08-05T10:57:06.255Z,1013.79
2022-08-05T10:58:05.234Z,1013.83
2022-08-05T10:59:11.427Z,1013.81
2022-08-05T11:00:09.867Z,1013.83
2022-08-05T11:01:06.316Z,1013.87
2022-08-05T11:02:05.635Z,1013.79
2022-08-05T11:03:25.082Z,1013.86
2022-08-05T11:04:06.241Z,1013.87
2022-08-05T11:05:05.228Z,1013.89
2022-08-05T11:06:05.160Z,1013.87
2022-08-05T11:07:05.239Z,1013.86
2022-08-05T11:08:27.648Z,1013.88
2022-08-05T11:09:06.110Z,1013.87
2022-08-05T11:10:09.864Z,1013.83
2022-08-05T11:11:14.567Z,1013.86
2022-08-05T11:12:06.089Z,1013.89
2022-08-05T11:13:05.052Z,1013.85
2022-08-05T11:14:05.081Z,1013.88
2022-08-05T11:15:19.829Z,1013.88
2022-08-05T11:16:06.052Z,1013.87
2022-08-05T11:17:56.852Z,1013.86
2022-08-05T11:18:06.079Z,1013.86
2022-08-05T11:20:10.143Z,1013.86
2022-08-05T11:20:10.335Z,1013.86
2022-08-05T11:21:11.753Z,1013.85
2022-08-05T11:22:05.947Z,1013.94
2022-08-05T11:23:05.972Z,1013.86
2022-08-05T11:24:14.731Z,1013.88
2022-08-05T11:25:16.830Z,1013.90
2022-08-05T11:26:08.865Z,1013.83
2022-08-05T11:27:04.875Z,1013.85
2022-08-05T11:28:04.857Z,1013.95
2022-08-05T11:29:12.291Z,1013.97
2022-08-05T11:30:05.848Z,1013.98
2022-08-05T11:31:06.449Z,1014.03
2022-08-05T11:32:04.801Z,1013.97
2022-08-05T11:33:04.814Z,1014.01
2022-08-05T11:34:04.774Z,1013.92
2022-08-05T11:35:04.782Z,1013.94
2022-08-05T11:36:08.647Z,1013.94
2022-08-05T11:37:06.119Z,1013.98
2022-08-05T11:38:31.029Z,1013.97
2022-08-05T11:39:05.826Z,1014.00
2022-08-05T11:40:04.771Z,1013.93
2022-08-05T11:41:34.500Z,1013.92
2022-08-05T11:42:05.735Z,1013.95
2022-08-05T11:43:04.677Z,1013.95
2022-08-05T11:44:08.140Z,1013.99
2022-08-05T11:45:05.405Z,1013.97
2022-08-05T11:46:15.464Z,1013.98
2022-08-05T11:47:10.481Z,1014.01
2022-08-05T11:48:05.619Z,1013.95
2022-08-05T11:49:04.599Z,1013.96
2022-08-05T11:50:04.579Z,1013.99
2022-08-05T11:51:04.569Z,1013.98
2022-08-05T11:52:11.202Z,1013.97
2022-08-05T11:53:06.434Z,1013.94
2022-08-05T11:54:04.632Z,1013.90
2022-08-05T11:55:07.343Z,1013.95
2022-08-05T11:56:05.511Z,1013.89
2022-08-05T11:57:08.497Z,1013.89
2022-08-05T11:58:09.469Z,1013.94
2022-08-05T11:59:05.503Z,1013.95
2022-08-05T12:00:06.461Z,1014.05
2022-08-05T12:01:04.522Z,1013.99
2022-08-05T12:02:04.435Z,1014.04
2022-08-05T12:03:04.478Z,1014.05
2022-08-05T12:04:04.467Z,1014.07
2022-08-05T12:05:07.158Z,1014.10
2022-08-05T12:06:05.763Z,1014.12